createdAt,value
2022-10-29T00:00:52.858Z,10.79
2022-10-29T00:01:54.857Z,10.70
2022-10-29T00:02:57.058Z,10.72
2022-10-29T00:03:59.081Z,10.76
2022-10-29T00:05:00.974Z,10.78
2022-10-29T00:07:15.874Z,10.90
2022-10-29T00:08:17.775Z,10.77
2022-10-29T00:09:19.747Z,10.79
2022-10-29T00:10:22.023Z,10.81
2022-10-29T00:11:23.914Z,10.75
2022-10-29T00:12:26.802Z,10.75
2022-10-29T00:13:28.964Z,10.77
2022-10-29T00:14:30.964Z,10.75
2022-10-29T00:15:34.156Z,10.70
2022-10-29T00:16:39.079Z,10.74
2022-10-29T00:17:41.078Z,10.78
2022-10-29T00:18:43.560Z,10.75
2022-10-29T00:19:45.490Z,10.77
2022-10-29T00:20:47.481Z,10.78
2022-10-29T00:21:50.395Z,10.75
2022-10-29T00:22:53.557Z,10.74
2022-10-29T00:23:57.336Z,10.75
2022-10-29T00:24:59.737Z,10.69
2022-10-29T00:26:02.936Z,10.68
2022-10-29T00:27:04.876Z,10.66
2022-10-29T00:28:06.753Z,10.68
2022-10-29T00:29:08.735Z,10.69
2022-10-29T00:30:12.984Z,10.70
2022-10-29T00:31:17.478Z,10.73
2022-10-29T00:32:19.522Z,10.72
2022-10-29T00:33:21.905Z,10.72
2022-10-29T00:34:23.845Z,10.75
2022-10-29T00:35:26.135Z,10.74
2022-10-29T00:36:29.833Z,10.74
2022-10-29T00:37:31.730Z,10.68
2022-10-29T00:38:35.006Z,10.75
2022-10-29T00:39:37.511Z,10.76
2022-10-29T00:40:39.530Z,10.72
2022-10-29T00:41:43.299Z,10.75
2022-10-29T00:42:45.369Z,10.73
2022-10-29T00:43:49.700Z,10.73
2022-10-29T00:44:51.635Z,10.73
2022-10-29T00:46:09.183Z,10.71
2022-10-29T00:47:26.995Z,10.68
2022-10-29T00:48:32.734Z,10.68
2022-10-29T00:49:35.301Z,10.64
2022-10-29T00:50:37.543Z,10.59
2022-10-29T00:51:39.795Z,10.60
2022-10-29T00:52:45.477Z,10.57
2022-10-29T00:55:02.252Z,10.63
2022-10-29T00:56:08.007Z,10.50
2022-10-29T00:57:19.170Z,10.46
2022-10-29T00:58:22.738Z,10.46
2022-10-29T00:59:28.640Z,10.46
2022-10-29T01:00:30.668Z,10.45
2022-10-29T01:01:33.429Z,10.44
2022-10-29T01:02:39.377Z,10.40
2022-10-29T01:03:43.418Z,10.40
2022-10-29T01:04:45.824Z,10.37
2022-10-29T01:05:48.646Z,10.34
2022-10-29T01:06:51.686Z,10.30
2022-10-29T01:07:53.572Z,10.28
2022-10-29T01:08:55.756Z,10.27
2022-10-29T01:09:58.868Z,10.27
2022-10-29T01:11:24.782Z,10.26
2022-10-29T01:12:53.397Z,10.24
2022-10-29T01:14:02.336Z,10.20
2022-10-29T01:16:48.473Z,10.32
2022-10-29T01:18:03.044Z,10.18
2022-10-29T01:19:23.998Z,10.12
2022-10-29T01:20:53.972Z,10.13
2022-10-29T01:22:17.752Z,10.11
2022-10-29T01:23:35.415Z,10.12
2022-10-29T01:24:50.123Z,10.11
2022-10-29T01:26:31.253Z,10.10
2022-10-29T01:27:48.711Z,10.07
2022-10-29T01:30:16.218Z,10.12
2022-10-29T01:31:45.154Z,10.02
2022-10-29T01:33:15.473Z,10.01
2022-10-29T01:35:46.567Z,10.10
2022-10-29T01:37:21.567Z,10.01
2022-10-29T01:38:36.530Z,9.95
2022-10-29T01:39:45.086Z,9.97
2022-10-29T01:41:00.738Z,10.01
2022-10-29T01:42:12.565Z,9.98
2022-10-29T01:43:38.188Z,9.97
2022-10-29T01:44:50.051Z,10.00
2022-10-29T01:46:12.662Z,9.98
2022-10-29T01:47:19.446Z,9.95
2022-10-29T01:48:32.154Z,9.91
2022-10-29T01:49:34.423Z,9.92
2022-10-29T01:50:41.037Z,9.90
2022-10-29T01:51:45.268Z,9.82
2022-10-29T01:52:48.937Z,9.91
2022-10-29T01:53:53.287Z,9.89
2022-10-29T01:54:55.220Z,9.88
2022-10-29T01:55:57.090Z,9.86
2022-10-29T01:57:00.484Z,9.86
2022-10-29T01:58:04.933Z,9.81
2022-10-29T01:59:18.262Z,9.84
2022-10-29T02:00:18.055Z,9.84
2022-10-29T02:01:49.372Z,9.88
2022-10-29T02:03:10.451Z,9.87
2022-10-29T02:04:51.931Z,9.84
2022-10-29T02:06:00.403Z,9.86
2022-10-29T02:07:35.482Z,9.80
2022-10-29T02:10:03.458Z,9.92
2022-10-29T02:12:32.483Z,9.90
2022-10-29T02:13:40.895Z,9.77
2022-10-29T02:14:49.524Z,9.74
2022-10-29T02:15:55.196Z,9.73
2022-10-29T02:16:58.458Z,9.70
2022-10-29T02:18:06.692Z,9.68
2022-10-29T02:19:08.817Z,9.66
2022-10-29T02:20:14.656Z,9.64
2022-10-29T02:21:19.024Z,9.61
2022-10-29T02:22:21.072Z,9.60
2022-10-29T02:23:23.071Z,9.63
2022-10-29T02:24:25.460Z,9.51
2022-10-29T02:25:27.669Z,9.52
2022-10-29T02:26:29.705Z,9.50
2022-10-29T02:27:31.954Z,9.50
2022-10-29T02:28:35.190Z,9.49
2022-10-29T02:29:37.086Z,9.50
2022-10-29T02:30:39.103Z,9.49
2022-10-29T02:31:41.079Z,9.53
2022-10-29T02:32:43.273Z,9.47
2022-10-29T02:33:45.183Z,9.36
2022-10-29T02:34:47.212Z,9.38
2022-10-29T02:35:49.328Z,9.38
2022-10-29T02:36:51.316Z,9.40
2022-10-29T02:37:53.226Z,9.37
2022-10-29T02:38:55.107Z,9.36
2022-10-29T02:39:57.205Z,9.38
2022-10-29T02:40:59.213Z,9.37
2022-10-29T02:42:01.115Z,9.37
2022-10-29T02:43:02.994Z,9.35
2022-10-29T02:44:04.870Z,9.34
2022-10-29T02:45:08.720Z,9.32
2022-10-29T02:46:17.295Z,9.30
2022-10-29T02:47:19.229Z,9.30
2022-10-29T02:48:21.193Z,9.27
2022-10-29T02:49:25.259Z,9.31
2022-10-29T02:50:27.300Z,9.25
2022-10-29T02:51:29.200Z,9.19
2022-10-29T02:52:31.139Z,9.11
2022-10-29T02:53:34.146Z,9.07
2022-10-29T02:54:36.101Z,9.07
2022-10-29T02:55:38.014Z,9.00
2022-10-29T02:56:40.039Z,9.00
2022-10-29T02:57:45.527Z,8.93
2022-10-29T02:58:47.456Z,8.89
2022-10-29T02:59:49.368Z,8.88
2022-10-29T03:00:52.398Z,8.88
2022-10-29T03:01:54.377Z,8.83
2022-10-29T03:02:56.878Z,8.82
2022-10-29T03:03:59.253Z,8.79
2022-10-29T03:05:01.138Z,8.79
2022-10-29T03:06:06.178Z,8.79
2022-10-29T03:07:08.098Z,8.73
2022-10-29T03:08:10.176Z,8.78
2022-10-29T03:09:12.279Z,8.79
2022-10-29T03:10:15.919Z,8.80
2022-10-29T03:11:17.876Z,8.82
2022-10-29T03:12:19.792Z,8.83
2022-10-29T03:13:21.729Z,8.82
2022-10-29T03:14:23.602Z,8.81
2022-10-29T03:15:26.109Z,8.74
2022-10-29T03:16:29.396Z,8.75
2022-10-29T03:17:31.417Z,8.75
2022-10-29T03:18:33.801Z,8.72
2022-10-29T03:19:35.697Z,8.70
2022-10-29T03:20:39.760Z,8.65
2022-10-29T03:21:41.724Z,8.62
2022-10-29T03:23:45.142Z,8.50
2022-10-29T03:24:47.036Z,8.43
2022-10-29T03:25:55.926Z,8.43
2022-10-29T03:26:58.399Z,8.43
2022-10-29T03:28:01.528Z,8.38
2022-10-29T03:29:03.421Z,8.34
2022-10-29T03:30:07.801Z,8.34
2022-10-29T03:31:09.736Z,8.30
2022-10-29T03:32:11.637Z,8.23
2022-10-29T03:33:13.946Z,8.26
2022-10-29T03:34:15.965Z,8.26
2022-10-29T03:35:17.905Z,8.27
2022-10-29T03:36:20.421Z,8.36
2022-10-29T03:37:23.302Z,8.30
2022-10-29T03:38:25.878Z,8.32
2022-10-29T03:39:27.789Z,8.38
2022-10-29T03:40:30.035Z,8.34
2022-10-29T03:41:32.928Z,8.37
2022-10-29T03:42:34.926Z,8.39
2022-10-29T03:43:38.332Z,8.37
2022-10-29T03:44:41.056Z,8.40
2022-10-29T03:45:43.226Z,8.35
2022-10-29T03:46:45.502Z,8.30
2022-10-29T03:47:47.988Z,8.25
2022-10-29T03:48:50.000Z,8.30
2022-10-29T03:49:51.944Z,8.29
2022-10-29T03:51:03.587Z,8.18
2022-10-29T03:52:07.275Z,8.12
2022-10-29T03:53:10.214Z,8.06
2022-10-29T03:54:12.365Z,8.07
2022-10-29T03:55:15.330Z,8.16
2022-10-29T03:56:17.782Z,8.02
2022-10-29T03:57:19.804Z,7.95
2022-10-29T03:58:23.538Z,7.91
2022-10-29T03:59:25.646Z,7.93
2022-10-29T04:00:27.636Z,7.95
2022-10-29T04:01:29.622Z,7.95
2022-10-29T04:02:32.693Z,7.98
2022-10-29T04:03:36.783Z,7.98
2022-10-29T04:04:39.459Z,7.99
2022-10-29T04:05:41.473Z,8.02
2022-10-29T04:06:44.005Z,8.03
2022-10-29T04:07:46.004Z,8.02
2022-10-29T04:08:48.576Z,8.03
2022-10-29T04:09:50.520Z,8.07
2022-10-29T04:10:53.001Z,8.11
2022-10-29T04:11:56.499Z,8.13
2022-10-29T04:12:58.672Z,8.12
2022-10-29T04:14:01.218Z,8.14
2022-10-29T04:15:03.930Z,8.16
2022-10-29T04:16:06.526Z,8.15
2022-10-29T04:17:11.206Z,8.18
2022-10-29T04:18:13.619Z,8.17
2022-10-29T04:19:15.548Z,8.19
2022-10-29T04:20:41.292Z,8.20
2022-10-29T04:28:41.905Z,8.19
2022-10-29T04:28:52.275Z,8.19
2022-10-29T04:29:55.373Z,8.18
2022-10-29T04:30:57.422Z,8.13
2022-10-29T04:31:59.301Z,8.19
2022-10-29T04:33:01.167Z,8.12
2022-10-29T04:34:04.198Z,8.14
2022-10-29T04:35:07.341Z,8.16
2022-10-29T04:36:10.607Z,8.20
2022-10-29T04:37:12.504Z,8.19
2022-10-29T04:38:14.548Z,8.16
2022-10-29T04:39:19.657Z,8.16
2022-10-29T04:40:22.401Z,8.15
2022-10-29T04:41:24.316Z,8.13
2022-10-29T04:42:26.354Z,8.11
2022-10-29T04:43:31.845Z,8.05
2022-10-29T04:44:34.297Z,8.14
2022-10-29T04:45:36.721Z,8.09
2022-10-29T04:46:40.715Z,8.11
2022-10-29T04:47:43.090Z,8.11
2022-10-29T04:48:45.411Z,8.13
2022-10-29T04:49:48.623Z,8.13
2022-10-29T04:50:50.751Z,8.12
2022-10-29T04:51:52.808Z,8.08
2022-10-29T04:54:09.720Z,8.23
2022-10-29T04:55:11.609Z,8.09
2022-10-29T04:56:13.911Z,8.03
2022-10-29T04:57:16.171Z,8.02
2022-10-29T04:58:19.078Z,8.08
2022-10-29T04:59:21.289Z,8.09
2022-10-29T05:00:24.310Z,8.10
2022-10-29T05:01:26.545Z,8.11
2022-10-29T05:02:28.628Z,8.10
2022-10-29T05:03:31.526Z,8.14
2022-10-29T05:04:33.557Z,8.12
2022-10-29T05:05:37.301Z,8.15
2022-10-29T05:06:40.303Z,8.13
2022-10-29T05:07:42.294Z,8.17
2022-10-29T05:08:44.190Z,8.14
2022-10-29T05:09:46.069Z,8.06
2022-10-29T05:10:48.598Z,8.01
2022-10-29T05:11:50.501Z,7.95
2022-10-29T05:13:01.572Z,7.97
2022-10-29T05:14:03.765Z,7.98
2022-10-29T05:15:07.815Z,7.96
2022-10-29T05:16:12.546Z,7.97
2022-10-29T05:17:14.466Z,7.98
2022-10-29T05:18:17.783Z,8.00
2022-10-29T05:19:19.816Z,8.05
2022-10-29T05:20:22.917Z,8.06
2022-10-29T05:21:24.830Z,8.08
2022-10-29T05:22:27.599Z,8.10
2022-10-29T05:23:29.540Z,8.16
2022-10-29T05:24:31.433Z,8.19
2022-10-29T05:25:35.208Z,8.19
2022-10-29T05:26:37.227Z,8.20
2022-10-29T05:27:39.157Z,8.21
2022-10-29T05:28:41.077Z,8.23
2022-10-29T05:29:43.062Z,8.26
2022-10-29T05:30:48.334Z,8.25
2022-10-29T05:31:53.467Z,8.23
2022-10-29T05:32:55.667Z,8.21
2022-10-29T05:33:58.114Z,8.23
2022-10-29T05:35:00.033Z,8.27
2022-10-29T05:36:02.254Z,8.27
2022-10-29T05:37:04.385Z,8.24
2022-10-29T05:38:08.775Z,8.21
2022-10-29T05:39:10.727Z,8.23
2022-10-29T05:40:15.029Z,8.15
2022-10-29T05:41:16.969Z,8.00
2022-10-29T05:42:19.854Z,8.07
2022-10-29T05:43:21.779Z,8.14
2022-10-29T05:44:23.666Z,8.25
2022-10-29T05:45:25.758Z,8.24
2022-10-29T05:46:27.857Z,8.17
2022-10-29T05:47:30.233Z,8.11
2022-10-29T05:48:32.368Z,8.06
2022-10-29T05:49:34.565Z,8.01
2022-10-29T05:50:37.163Z,8.08
2022-10-29T05:51:39.399Z,8.10
2022-10-29T05:52:41.312Z,7.78
2022-10-29T05:53:43.233Z,7.78
2022-10-29T05:54:45.152Z,7.86
2022-10-29T05:55:47.045Z,7.93
2022-10-29T05:56:49.035Z,8.00
2022-10-29T05:57:57.584Z,8.09
2022-10-29T05:59:00.450Z,8.10
2022-10-29T06:00:03.994Z,8.17
2022-10-29T06:01:08.317Z,8.24
2022-10-29T06:02:10.349Z,8.32
2022-10-29T06:04:25.483Z,8.53
2022-10-29T06:05:27.725Z,8.50
2022-10-29T06:06:29.812Z,8.53
2022-10-29T06:07:31.930Z,8.63
2022-10-29T06:08:34.216Z,8.62
2022-10-29T06:09:37.163Z,8.67
2022-10-29T06:10:39.736Z,8.71
2022-10-29T06:11:42.207Z,8.75
2022-10-29T06:12:47.847Z,8.77
2022-10-29T06:13:52.130Z,8.77
2022-10-29T06:14:54.250Z,8.85
2022-10-29T06:15:58.700Z,8.91
2022-10-29T06:17:03.702Z,8.99
2022-10-29T06:18:07.315Z,8.91
2022-10-29T06:19:09.327Z,9.03
2022-10-29T06:20:15.917Z,9.14
2022-10-29T06:21:17.972Z,9.20
2022-10-29T06:22:19.975Z,9.30
2022-10-29T06:23:23.666Z,9.40
2022-10-29T06:24:25.847Z,9.46
2022-10-29T06:25:28.556Z,9.42
2022-10-29T06:26:30.556Z,9.43
2022-10-29T06:27:34.097Z,9.55
2022-10-29T06:28:36.181Z,9.71
2022-10-29T06:29:38.184Z,9.86
2022-10-29T06:30:45.091Z,9.95
2022-10-29T06:31:48.048Z,10.08
2022-10-29T06:32:52.478Z,10.08
2022-10-29T06:33:56.302Z,10.03
2022-10-29T06:34:58.932Z,10.10
2022-10-29T06:36:03.586Z,10.44
2022-10-29T06:37:07.705Z,10.55
2022-10-29T06:38:12.324Z,10.48
2022-10-29T06:39:15.851Z,10.50
2022-10-29T06:40:19.031Z,10.56
2022-10-29T06:41:21.226Z,10.49
2022-10-29T06:42:23.758Z,10.74
2022-10-29T06:43:25.917Z,10.66
2022-10-29T06:44:29.749Z,10.78
2022-10-29T06:45:34.606Z,10.55
2022-10-29T06:46:36.993Z,10.71
2022-10-29T06:47:44.751Z,10.75
2022-10-29T06:48:46.837Z,10.89
2022-10-29T06:49:50.431Z,10.83
2022-10-29T06:50:52.661Z,10.90
2022-10-29T06:51:54.612Z,10.72
2022-10-29T06:52:59.509Z,10.80
2022-10-29T06:54:03.648Z,10.86
2022-10-29T06:55:08.073Z,10.64
2022-10-29T06:56:10.121Z,10.60
2022-10-29T06:57:12.011Z,10.45
2022-10-29T06:58:17.168Z,10.44
2022-10-29T06:59:20.084Z,10.52
2022-10-29T07:00:22.078Z,10.67
2022-10-29T07:01:25.518Z,10.77
2022-10-29T07:02:28.103Z,10.74
2022-10-29T07:03:31.434Z,10.78
2022-10-29T07:04:33.655Z,10.84
2022-10-29T07:05:36.327Z,10.82
2022-10-29T07:06:38.508Z,10.83
2022-10-29T07:07:40.427Z,10.84
2022-10-29T07:08:42.463Z,10.85
2022-10-29T07:09:45.073Z,10.92
2022-10-29T07:10:52.771Z,10.68
2022-10-29T07:11:54.694Z,10.77
2022-10-29T07:12:57.822Z,10.62
2022-10-29T07:14:00.421Z,10.61
2022-10-29T07:15:02.598Z,10.68
2022-10-29T07:16:05.879Z,10.45
2022-10-29T07:17:07.794Z,10.61
2022-10-29T07:18:11.715Z,10.58
2022-10-29T07:19:14.174Z,10.55
2022-10-29T07:20:16.430Z,10.62
2022-10-29T07:21:18.345Z,10.70
2022-10-29T07:22:20.366Z,10.59
2022-10-29T07:23:22.415Z,10.67
2022-10-29T07:24:24.471Z,10.63
2022-10-29T07:25:28.281Z,10.59
2022-10-29T07:26:30.405Z,10.54
2022-10-29T07:27:32.351Z,10.57
2022-10-29T07:28:34.635Z,10.61
2022-10-29T07:29:36.648Z,10.63
2022-10-29T07:30:39.071Z,10.66
2022-10-29T07:31:41.047Z,10.74
2022-10-29T07:32:43.019Z,10.82
2022-10-29T07:33:45.518Z,10.89
2022-10-29T07:34:47.402Z,10.94
2022-10-29T07:35:49.518Z,11.02
2022-10-29T07:36:51.492Z,10.97
2022-10-29T07:38:05.364Z,11.02
2022-10-29T07:39:05.773Z,11.00
2022-10-29T07:40:10.168Z,10.80
2022-10-29T07:41:12.373Z,10.77
2022-10-29T07:42:15.563Z,10.80
2022-10-29T07:43:20.658Z,10.79
2022-10-29T07:44:22.932Z,10.97
2022-10-29T07:45:25.362Z,10.98
2022-10-29T07:46:27.366Z,10.97
2022-10-29T07:47:29.281Z,11.01
2022-10-29T07:48:31.376Z,11.04
2022-10-29T07:49:35.111Z,11.05
2022-10-29T07:50:39.009Z,11.01
2022-10-29T07:51:42.880Z,11.03
2022-10-29T07:52:44.900Z,10.97
2022-10-29T07:53:46.788Z,10.86
2022-10-29T07:54:49.440Z,10.86
2022-10-29T07:57:03.893Z,11.01
2022-10-29T07:58:09.125Z,10.98
2022-10-29T07:59:11.087Z,11.00
2022-10-29T08:00:14.753Z,11.07
2022-10-29T08:01:16.865Z,10.93
2022-10-29T08:02:19.593Z,10.92
2022-10-29T08:03:21.707Z,10.94
2022-10-29T08:04:24.455Z,11.01
2022-10-29T08:05:28.209Z,10.88
2022-10-29T08:06:30.424Z,10.94
2022-10-29T08:07:32.311Z,10.93
2022-10-29T08:08:34.196Z,11.00
2022-10-29T08:09:36.077Z,10.97
2022-10-29T08:10:38.274Z,10.93
2022-10-29T08:11:40.172Z,10.82
2022-10-29T08:12:55.929Z,10.91
2022-10-29T08:13:59.261Z,10.84
2022-10-29T08:15:01.457Z,10.85
2022-10-29T08:16:04.150Z,11.01
2022-10-29T08:17:06.082Z,11.06
2022-10-29T08:18:16.735Z,11.11
2022-10-29T08:19:18.671Z,11.03
2022-10-29T08:20:23.013Z,11.02
2022-10-29T08:21:25.219Z,11.10
2022-10-29T08:22:30.124Z,11.05
2022-10-29T08:23:32.554Z,11.19
2022-10-29T08:24:34.633Z,11.41
2022-10-29T08:25:36.941Z,11.41
2022-10-29T08:26:38.980Z,11.44
2022-10-29T08:27:41.956Z,11.61
2022-10-29T08:28:44.566Z,11.64
2022-10-29T08:29:46.680Z,11.79
2022-10-29T08:30:50.261Z,11.92
2022-10-29T08:31:52.328Z,12.05
2022-10-29T08:32:54.663Z,12.05
2022-10-29T08:33:59.493Z,12.18
2022-10-29T08:35:02.772Z,12.17
2022-10-29T08:36:05.396Z,12.30
2022-10-29T08:37:11.167Z,12.41
2022-10-29T08:38:17.332Z,12.46
2022-10-29T08:39:19.597Z,12.50
2022-10-29T08:40:52.690Z,12.46
2022-10-29T08:42:08.764Z,12.52
2022-10-29T08:43:47.181Z,12.24
2022-10-29T08:45:11.444Z,12.45
2022-10-29T08:47:34.074Z,12.58
2022-10-29T08:48:49.273Z,12.51
2022-10-29T08:50:07.416Z,12.64
2022-10-29T08:51:31.761Z,12.60
2022-10-29T08:52:37.579Z,12.65
2022-10-29T08:53:54.396Z,12.65
2022-10-29T08:55:12.468Z,12.74
2022-10-29T08:57:40.349Z,12.90
2022-10-29T08:58:51.789Z,12.87
2022-10-29T09:00:03.308Z,12.79
2022-10-29T09:01:09.399Z,13.05
2022-10-29T09:02:17.023Z,13.20
2022-10-29T09:03:19.086Z,13.24
2022-10-29T09:04:26.886Z,13.16
2022-10-29T09:05:35.473Z,13.27
2022-10-29T09:06:57.997Z,13.21
2022-10-29T09:08:23.663Z,13.02
2022-10-29T09:09:29.395Z,13.17
2022-10-29T09:10:46.745Z,13.29
2022-10-29T09:12:04.614Z,13.17
2022-10-29T09:13:16.056Z,13.06
2022-10-29T09:14:25.576Z,13.03
2022-10-29T09:16:06.805Z,13.10
2022-10-29T09:17:15.768Z,13.21
2022-10-29T09:18:45.209Z,13.36
2022-10-29T09:20:14.027Z,13.39
2022-10-29T09:21:53.443Z,13.32
2022-10-29T09:23:17.480Z,13.44
2022-10-29T09:26:02.428Z,13.76
2022-10-29T09:27:20.625Z,13.81
2022-10-29T09:28:44.153Z,13.89
2022-10-29T09:30:10.835Z,13.98
2022-10-29T09:31:22.295Z,13.99
2022-10-29T09:32:27.988Z,14.06
2022-10-29T09:33:31.570Z,14.13
2022-10-29T09:34:46.046Z,14.19
2022-10-29T09:35:54.685Z,14.24
2022-10-29T09:36:57.540Z,14.26
2022-10-29T09:38:02.965Z,14.32
2022-10-29T09:39:20.691Z,14.38
2022-10-29T09:40:36.367Z,14.44
2022-10-29T09:41:40.108Z,14.50
2022-10-29T09:42:45.767Z,14.58
2022-10-29T09:43:51.585Z,14.56
2022-10-29T09:44:58.736Z,14.45
2022-10-29T09:46:28.788Z,14.49
2022-10-29T09:47:49.966Z,14.52
2022-10-29T09:51:51.718Z,14.61
2022-10-29T09:52:55.750Z,14.44
2022-10-29T09:53:58.944Z,14.44
2022-10-29T09:55:04.041Z,14.47
2022-10-29T09:56:07.801Z,14.47
2022-10-29T09:57:22.755Z,14.55
2022-10-29T09:58:27.681Z,14.58
2022-10-29T09:59:37.018Z,14.60
2022-10-29T10:00:40.228Z,14.55
2022-10-29T10:01:42.923Z,14.58
2022-10-29T10:03:01.643Z,14.65
2022-10-29T10:04:08.269Z,14.72
2022-10-29T10:05:18.992Z,14.79
2022-10-29T10:06:21.476Z,14.83
2022-10-29T10:07:23.523Z,14.83
2022-10-29T10:08:31.356Z,14.83
2022-10-29T10:09:57.976Z,14.93
2022-10-29T10:11:06.322Z,14.97
2022-10-29T10:12:10.721Z,15.01
2022-10-29T10:13:16.988Z,15.05
2022-10-29T10:14:20.378Z,15.08
2022-10-29T10:15:34.964Z,15.10
2022-10-29T10:16:38.149Z,15.14
2022-10-29T10:17:56.465Z,15.12
2022-10-29T10:18:58.913Z,15.13
2022-10-29T10:20:00.900Z,15.07
2022-10-29T10:21:09.785Z,15.11
2022-10-29T10:22:21.309Z,15.07
2022-10-29T10:23:50.988Z,15.13
2022-10-29T10:24:53.351Z,15.20
2022-10-29T10:26:01.992Z,15.17
2022-10-29T10:27:20.833Z,15.16
2022-10-29T10:28:28.228Z,15.17
2022-10-29T10:29:30.207Z,15.19
2022-10-29T10:30:32.298Z,15.17
2022-10-29T10:31:34.185Z,15.19
2022-10-29T10:32:36.100Z,15.20
2022-10-29T10:33:51.294Z,15.24
2022-10-29T10:34:53.227Z,15.19
2022-10-29T10:35:57.727Z,15.21
2022-10-29T10:37:12.683Z,15.20
2022-10-29T10:38:16.588Z,15.20
2022-10-29T10:39:25.160Z,15.19
2022-10-29T10:40:27.698Z,15.19
2022-10-29T10:41:34.695Z,15.13
2022-10-29T10:42:39.496Z,15.12
2022-10-29T10:43:46.771Z,15.07
2022-10-29T10:44:52.273Z,15.03
2022-10-29T10:45:58.041Z,15.03
2022-10-29T10:47:06.254Z,14.94
2022-10-29T10:48:12.381Z,14.93
2022-10-29T10:49:24.180Z,14.92
2022-10-29T10:50:31.974Z,14.83
2022-10-29T10:51:36.989Z,14.82
2022-10-29T10:52:40.060Z,14.79
2022-10-29T10:53:42.458Z,14.75
2022-10-29T10:55:00.365Z,14.70
2022-10-29T10:56:02.847Z,14.65
2022-10-29T10:57:11.498Z,14.56
2022-10-29T10:58:23.479Z,14.53
2022-10-29T11:01:04.100Z,14.56
2022-10-29T11:02:19.027Z,14.46
2022-10-29T11:03:25.000Z,14.46
2022-10-29T11:04:30.855Z,14.48
2022-10-29T11:06:05.908Z,14.47
2022-10-29T11:07:11.607Z,14.42
2022-10-29T11:08:29.384Z,14.46
2022-10-29T11:09:40.840Z,14.45
2022-10-29T11:10:49.594Z,14.42
2022-10-29T11:11:59.182Z,14.40
2022-10-29T11:13:05.238Z,14.36
2022-10-29T11:14:14.112Z,14.39
2022-10-29T11:15:19.993Z,14.39
2022-10-29T11:16:40.983Z,14.41
2022-10-29T11:17:53.872Z,14.44
2022-10-29T11:19:14.225Z,14.48
2022-10-29T11:20:29.091Z,14.51
2022-10-29T11:21:40.322Z,14.57
2022-10-29T11:23:19.774Z,14.62
2022-10-29T11:24:28.444Z,14.62
2022-10-29T11:25:45.987Z,14.63
2022-10-29T11:26:54.870Z,14.63
2022-10-29T11:28:25.292Z,14.61
2022-10-29T11:30:03.082Z,14.64
2022-10-29T11:32:43.378Z,14.70
2022-10-29T11:33:52.019Z,14.57
2022-10-29T11:35:06.769Z,14.59
2022-10-29T11:36:12.876Z,14.57
2022-10-29T11:37:18.595Z,14.57
2022-10-29T11:38:31.747Z,14.57
2022-10-29T11:41:00.726Z,14.71
2022-10-29T11:42:03.038Z,14.18
2022-10-29T11:43:14.374Z,14.64
2022-10-29T11:44:16.934Z,14.65
2022-10-29T11:45:22.624Z,14.63
2022-10-29T11:46:40.889Z,14.62
2022-10-29T11:47:55.993Z,14.60
2022-10-29T11:49:01.943Z,14.62
2022-10-29T11:50:27.700Z,14.67
2022-10-29T11:51:33.385Z,14.64
2022-10-29T11:52:54.446Z,14.67
2022-10-29T11:54:06.566Z,14.69
2022-10-29T11:55:32.305Z,14.66
2022-10-29T11:56:46.821Z,14.70
2022-10-29T11:58:01.152Z,14.71
2022-10-29T11:59:07.024Z,14.73
2022-10-29T12:00:18.321Z,14.70
2022-10-29T12:01:24.073Z,14.74
2022-10-29T12:02:44.996Z,14.73
2022-10-29T12:03:56.796Z,14.73
2022-10-29T12:05:11.887Z,14.81
2022-10-29T12:08:20.234Z,14.90
2022-10-29T12:10:00.429Z,14.84
2022-10-29T12:11:27.347Z,14.85
2022-10-29T12:12:41.014Z,14.92
2022-10-29T12:14:04.607Z,14.92
2022-10-29T12:16:38.568Z,15.15
2022-10-29T12:18:02.794Z,15.05
2022-10-29T12:19:42.119Z,15.02
2022-10-29T12:21:00.100Z,15.02
2022-10-29T12:23:30.694Z,15.17
2022-10-29T12:24:36.366Z,15.07
2022-10-29T12:26:00.456Z,15.06
2022-10-29T12:27:34.712Z,15.13
2022-10-29T12:29:15.316Z,15.11
2022-10-29T12:31:55.494Z,15.33
2022-10-29T12:33:13.690Z,15.20
2022-10-29T12:34:25.668Z,15.21
2022-10-29T12:35:48.165Z,15.18
2022-10-29T12:37:09.280Z,15.18
2022-10-29T12:38:33.021Z,15.18
2022-10-29T12:40:51.394Z,15.30
2022-10-29T12:41:57.129Z,15.24
2022-10-29T12:43:02.816Z,15.28
2022-10-29T12:44:15.504Z,15.35
2022-10-29T12:45:27.209Z,15.35
2022-10-29T12:46:34.705Z,15.43
2022-10-29T12:47:52.443Z,15.41
2022-10-29T12:49:13.549Z,15.38
2022-10-29T12:50:43.782Z,15.36
2022-10-29T12:51:58.469Z,15.31
2022-10-29T12:53:19.684Z,15.27
2022-10-29T12:54:25.556Z,15.33
2022-10-29T12:55:28.522Z,15.39
2022-10-29T12:56:31.636Z,15.39
2022-10-29T12:57:35.318Z,15.42
2022-10-29T12:58:53.560Z,15.43
2022-10-29T12:59:55.802Z,15.43
2022-10-29T13:00:58.721Z,15.46
2022-10-29T13:02:27.343Z,15.46
2022-10-29T13:03:56.365Z,15.41
2022-10-29T13:05:11.445Z,15.35
2022-10-29T13:06:43.872Z,15.32
2022-10-29T13:07:49.814Z,15.45
2022-10-29T13:08:55.894Z,15.44
2022-10-29T13:10:24.575Z,15.47
2022-10-29T13:11:30.274Z,15.49
2022-10-29T13:12:56.597Z,15.48
2022-10-29T13:14:29.410Z,15.54
2022-10-29T13:15:37.914Z,15.54
2022-10-29T13:16:41.650Z,15.49
2022-10-29T13:17:48.046Z,15.49
2022-10-29T13:20:25.377Z,15.62
2022-10-29T13:22:04.346Z,15.43
2022-10-29T13:23:22.785Z,15.47
2022-10-29T13:24:26.241Z,15.46
2022-10-29T13:25:41.342Z,15.48
2022-10-29T13:26:55.478Z,15.51
2022-10-29T13:27:57.761Z,15.51
2022-10-29T13:28:59.678Z,15.49
2022-10-29T13:30:17.719Z,15.51
2022-10-29T13:31:24.029Z,15.50
2022-10-29T13:32:39.389Z,15.48
2022-10-29T13:33:45.747Z,15.44
2022-10-29T13:34:57.478Z,15.42
2022-10-29T13:36:02.382Z,15.46
2022-10-29T13:39:06.372Z,15.60
2022-10-29T13:40:29.742Z,15.43
2022-10-29T13:41:43.883Z,15.49
2022-10-29T13:42:48.305Z,15.47
2022-10-29T13:44:00.003Z,15.47
2022-10-29T13:45:03.098Z,15.43
2022-10-29T13:46:15.092Z,15.46
2022-10-29T13:47:21.641Z,15.46
2022-10-29T13:48:36.894Z,15.45
2022-10-29T13:49:42.666Z,15.42
2022-10-29T13:50:50.339Z,15.49
2022-10-29T13:51:56.395Z,15.51
2022-10-29T13:53:01.463Z,15.47
2022-10-29T13:55:24.888Z,15.53
2022-10-29T13:56:36.470Z,15.46
2022-10-29T13:58:00.838Z,15.46
2022-10-29T13:59:06.685Z,15.48
2022-10-29T14:00:18.275Z,15.44
2022-10-29T14:01:22.621Z,15.49
2022-10-29T14:02:58.346Z,15.44
2022-10-29T14:05:34.950Z,15.54
2022-10-29T14:06:38.921Z,15.44
2022-10-29T14:08:02.738Z,15.48
2022-10-29T14:09:20.707Z,15.51
2022-10-29T14:10:26.042Z,15.41
2022-10-29T14:11:31.968Z,15.47
2022-10-29T14:12:35.896Z,15.38
2022-10-29T14:13:47.384Z,15.43
2022-10-29T14:14:57.333Z,15.51
2022-10-29T14:16:11.497Z,15.41
2022-10-29T14:18:26.872Z,15.45
2022-10-29T14:19:28.884Z,15.30
2022-10-29T14:20:32.894Z,15.28
2022-10-29T14:21:39.337Z,15.46
2022-10-29T14:22:41.294Z,15.47
2022-10-29T14:23:58.133Z,15.57
2022-10-29T14:25:01.750Z,15.51
2022-10-29T14:26:04.168Z,15.75
2022-10-29T14:27:07.261Z,15.64
2022-10-29T14:28:25.260Z,15.66
2022-10-29T14:29:27.175Z,15.69
2022-10-29T14:30:30.020Z,15.64
2022-10-29T14:31:32.022Z,15.51
2022-10-29T14:32:37.767Z,15.46
2022-10-29T14:33:47.152Z,15.47
2022-10-29T14:35:01.519Z,15.44
2022-10-29T14:37:35.378Z,15.69
2022-10-29T14:39:04.844Z,15.52
2022-10-29T14:40:22.326Z,15.48
2022-10-29T14:41:27.270Z,15.46
2022-10-29T14:42:39.064Z,15.42
2022-10-29T14:43:42.317Z,15.48
2022-10-29T14:44:51.929Z,15.39
2022-10-29T14:46:00.536Z,15.40
2022-10-29T14:47:10.257Z,15.51
2022-10-29T14:48:15.264Z,15.35
2022-10-29T14:49:23.526Z,15.30
2022-10-29T14:50:27.406Z,15.53
2022-10-29T14:51:33.272Z,15.55
2022-10-29T14:52:41.609Z,15.46
2022-10-29T14:53:43.929Z,15.47
2022-10-29T14:54:49.348Z,15.48
2022-10-29T14:55:52.749Z,15.52
2022-10-29T14:57:01.859Z,15.60
2022-10-29T14:58:13.457Z,15.54
2022-10-29T14:59:26.397Z,15.46
2022-10-29T15:00:28.850Z,15.43
2022-10-29T15:01:30.922Z,15.36
2022-10-29T15:02:38.513Z,15.29
2022-10-29T15:03:40.762Z,15.52
2022-10-29T15:04:48.989Z,15.41
2022-10-29T15:05:51.826Z,15.46
2022-10-29T15:06:57.807Z,15.37
2022-10-29T15:08:13.022Z,15.39
2022-10-29T15:09:17.225Z,15.34
2022-10-29T15:10:23.847Z,15.43
2022-10-29T15:11:40.091Z,15.35
2022-10-29T15:12:45.256Z,15.49
2022-10-29T15:13:47.292Z,15.39
2022-10-29T15:14:52.318Z,15.35
2022-10-29T15:16:19.843Z,15.32
2022-10-29T15:17:25.186Z,15.34
2022-10-29T15:18:30.081Z,15.55
2022-10-29T15:19:32.142Z,15.68
2022-10-29T15:20:40.640Z,15.58
2022-10-29T15:21:43.588Z,15.66
2022-10-29T15:22:49.768Z,15.55
2022-10-29T15:23:56.355Z,15.58
2022-10-29T15:25:00.798Z,15.56